Felix-Klein-Gymnasium, Gttingen, 150m NN
Wetterdaten: aktuell Montag, 20.05.2019 11:15
Datum Zeit Temp. A. Feuchte A. Luftdruck Regen Wind Richtung Richtung Sonnenschein Taupunkt Windchill Windben
20.05.2019 11:15 19,7 C 72 % 1000,9 hPa 0,0 mm 17,8 km/h (3 Bft) N-NW 346 15 min 14,5 C 19,7 C 30,6 km/h (5 Bft)
20.05.2019 11:00 19,2 C 74 % 1001,0 hPa 0,0 mm 15,0 km/h (3 Bft) N-NO 31 15 min 14,4 C 19,2 C 25,7 km/h (4 Bft)
20.05.2019 10:45 18,8 C 76 % 1001,1 hPa 0,0 mm 8,8 km/h (2 Bft) N-NO 25 15 min 14,5 C 18,8 C 20,9 km/h (4 Bft)
20.05.2019 10:30 17,7 C 78 % 1001,1 hPa 0,0 mm 6,4 km/h (2 Bft) N 350 15 min 13,8 C 17,7 C 17,7 km/h (3 Bft)
20.05.2019 10:15 17,1 C 79 % 1001,2 hPa 0,0 mm 5,7 km/h (1 Bft) N 11 15 min 13,4 C 17,1 C 12,9 km/h (3 Bft)
20.05.2019 10:00 16,4 C 80 % 1001,2 hPa 0,0 mm 7,2 km/h (2 Bft) NW 324 15 min 12,9 C 16,4 C 12,9 km/h (3 Bft)
20.05.2019 09:45 16,2 C 80 % 1001,3 hPa 0,0 mm 4,1 km/h (1 Bft) NW 310 0 min 12,7 C 16,2 C 11,3 km/h (2 Bft)
20.05.2019 09:30 15,8 C 80 % 1001,4 hPa 0,0 mm 5,0 km/h (1 Bft) N-NW 341 0 min 12,4 C 15,8 C 9,7 km/h (2 Bft)
20.05.2019 09:15 15,5 C 81 % 1001,3 hPa 0,0 mm 3,7 km/h (1 Bft) N 351 0 min 12,3 C 15,5 C 9,7 km/h (2 Bft)
20.05.2019 09:00 15,4 C 81 % 1001,4 hPa 0,0 mm 2,1 km/h (1 Bft) N 5 0 min 12,2 C 15,4 C 11,3 km/h (2 Bft)
20.05.2019 08:45 15,2 C 81 % 1001,3 hPa 0,0 mm 0,5 km/h (0 Bft) N-NW 348 0 min 12,0 C 15,2 C 6,4 km/h (2 Bft)
20.05.2019 08:30 15,1 C 81 % 1001,3 hPa 0,0 mm 0,9 km/h (0 Bft) NW 315 15 min 11,9 C 15,1 C 8,0 km/h (2 Bft)
20.05.2019 08:15 14,8 C 83 % 1001,3 hPa 0,0 mm 0,2 km/h (0 Bft) W 277 15 min 11,9 C 14,8 C 3,2 km/h (1 Bft)
20.05.2019 08:00 14,2 C 84 % 1001,2 hPa 0,0 mm 0,4 km/h (0 Bft) NW 318 15 min 11,5 C 14,2 C 6,4 km/h (2 Bft)
20.05.2019 07:45 13,8 C 85 % 1001,3 hPa 0,0 mm 0,0 km/h (0 Bft) NW 317 15 min 11,3 C 13,8 C 3,2 km/h (1 Bft)
20.05.2019 07:30 13,4 C 87 % 1001,2 hPa 0,0 mm 0,5 km/h (0 Bft) NW 311 15 min 11,3 C 13,4 C 4,8 km/h (1 Bft)
20.05.2019 07:15 13,0 C 88 % 1001,2 hPa 0,0 mm 0,8 km/h (0 Bft) N-NW 348 15 min 11,1 C 13,0 C 8,0 km/h (2 Bft)
20.05.2019 07:00 12,6 C 89 % 1001,1 hPa 0,0 mm 0,8 km/h (0 Bft) N-NO 19 15 min 10,8 C 12,6 C 6,4 km/h (2 Bft)
20.05.2019 06:45 12,4 C 90 % 1001,1 hPa 0,0 mm 0,0 km/h (0 Bft) N-NO 21 0 min 10,8 C 12,4 C 1,6 km/h (1 Bft)
20.05.2019 06:30 12,3 C 91 % 1001,2 hPa 0,0 mm 0,1 km/h (0 Bft) N-NO 20 0 min 10,9 C 12,3 C 3,2 km/h (1 Bft)
20.05.2019 06:15 12,1 C 91 % 1001,1 hPa 0,0 mm 0,2 km/h (0 Bft) N-NO 20 0 min 10,7 C 12,1 C 4,8 km/h (1 Bft)
20.05.2019 06:00 11,8 C 91 % 1001,1 hPa 0,0 mm 1,3 km/h (1 Bft) N-NO 32 0 min 10,4 C 11,8 C 6,4 km/h (2 Bft)
20.05.2019 05:45 11,6 C 91 % 1001,2 hPa 0,0 mm 0,0 km/h (0 Bft) O-SO 110 0 min 10,2 C 11,6 C 0,0 km/h (0 Bft)
20.05.2019 05:30 11,7 C 91 % 1001,2 hPa 0,0 mm 0,0 km/h (0 Bft) O-SO 110 0 min 10,3 C 11,7 C 0,0 km/h (0 Bft)
20.05.2019 05:15 11,8 C 91 % 1001,2 hPa 0,0 mm 0,0 km/h (0 Bft) O-SO 110 0 min 10,4 C 11,8 C 0,0 km/h (0 Bft)
20.05.2019 05:00 11,8 C 91 % 1001,3 hPa 0,0 mm 0,0 km/h (0 Bft) O-SO 110 0 min 10,4 C 11,8 C 0,0 km/h (0 Bft)
20.05.2019 04:45 11,8 C 91 % 1001,3 hPa 0,0 mm 0,0 km/h (0 Bft) O-SO 110 0 min 10,4 C 11,8 C 0,0 km/h (0 Bft)
20.05.2019 04:30 11,9 C 90 % 1001,2 hPa 0,0 mm 0,0 km/h (0 Bft) O-SO 110 0 min 10,3 C 11,9 C 0,0 km/h (0 Bft)
20.05.2019 04:15 12,1 C 89 % 1001,3 hPa 0,0 mm 0,0 km/h (0 Bft) O-SO 110 0 min 10,3 C 12,1 C 0,0 km/h (0 Bft)
20.05.2019 04:00 12,3 C 89 % 1001,3 hPa 0,0 mm 0,0 km/h (0 Bft) O-SO 110 0 min 10,5 C 12,3 C 0,0 km/h (0 Bft)
20.05.2019 03:45 12,6 C 89 % 1001,3 hPa 0,0 mm 0,0 km/h (0 Bft) O-SO 110 0 min 10,8 C 12,6 C 0,0 km/h (0 Bft)
20.05.2019 03:30 12,7 C 88 % 1001,4 hPa 0,0 mm 0,0 km/h (0 Bft) O-SO 110 0 min 10,8 C 12,7 C 1,6 km/h (1 Bft)
20.05.2019 03:15 12,9 C 88 % 1001,4 hPa 0,0 mm 0,0 km/h (0 Bft) O-SO 108 0 min 11,0 C 12,9 C 0,0 km/h (0 Bft)
20.05.2019 03:00 13,1 C 88 % 1001,3 hPa 0,0 mm 0,0 km/h (0 Bft) O-SO 108 0 min 11,2 C 13,1 C 0,0 km/h (0 Bft)
20.05.2019 02:45 13,0 C 88 % 1001,2 hPa 0,0 mm 0,0 km/h (0 Bft) S 174 0 min 11,1 C 13,0 C 0,0 km/h (0 Bft)
20.05.2019 02:30 12,9 C 89 % 1001,2 hPa 0,0 mm 0,0 km/h (0 Bft) S-SW 208 0 min 11,1 C 12,9 C 0,0 km/h (0 Bft)
20.05.2019 02:15 13,1 C 88 % 1001,4 hPa 0,0 mm 0,2 km/h (0 Bft) S-SW 209 0 min 11,2 C 13,1 C 4,8 km/h (1 Bft)
20.05.2019 02:00 13,2 C 88 % 1001,5 hPa 0,0 mm 1,0 km/h (0 Bft) S-SW 205 0 min 11,3 C 13,2 C 6,4 km/h (2 Bft)
20.05.2019 01:45 13,2 C 87 % 1001,7 hPa 0,0 mm 0,9 km/h (0 Bft) S-SO 155 0 min 11,1 C 13,2 C 8,0 km/h (2 Bft)
20.05.2019 01:30 13,8 C 86 % 1001,6 hPa 0,0 mm 1,6 km/h (1 Bft) S 175 0 min 11,5 C 13,8 C 11,3 km/h (2 Bft)
20.05.2019 01:15 14,2 C 84 % 1001,4 hPa 0,0 mm 0,0 km/h (0 Bft) S 185 0 min 11,5 C 14,2 C 0,0 km/h (0 Bft)
20.05.2019 01:00 14,5 C 85 % 1001,4 hPa 0,0 mm 0,0 km/h (0 Bft) S 185 0 min 12,0 C 14,5 C 0,0 km/h (0 Bft)
20.05.2019 00:45 14,6 C 85 % 1001,4 hPa 0,0 mm 0,0 km/h (0 Bft) S 185 0 min 12,1 C 14,6 C 0,0 km/h (0 Bft)
20.05.2019 00:30 14,8 C 84 % 1001,4 hPa 0,0 mm 0,0 km/h (0 Bft) S 185 0 min 12,1 C 14,8 C 0,0 km/h (0 Bft)
20.05.2019 00:15 15,1 C 83 % 1001,4 hPa 0,0 mm 0,0 km/h (0 Bft) S 185 0 min 12,2 C 15,1 C 0,0 km/h (0 Bft)
20.05.2019 00:00 15,3 C 82 % 1001,4 hPa 0,0 mm 0,0 km/h (0 Bft) S 185 0 min 12,2 C 15,3 C 0,0 km/h (0 Bft)
19.05.2019 23:45 15,6 C 81 % 1001,4 hPa 0,0 mm 0,0 km/h (0 Bft) N 0 0 min 12,3 C 15,6 C 0,0 km/h (0 Bft)
19.05.2019 23:30 15,8 C 80 % 1001,4 hPa 0,0 mm 0,0 km/h (0 Bft) N 0 0 min 12,4 C 15,8 C 0,0 km/h (0 Bft)
19.05.2019 23:15 16,3 C 80 % 1001,5 hPa 0,0 mm 0,0 km/h (0 Bft) N 0 0 min 12,8 C 16,3 C 0,0 km/h (0 Bft)
19.05.2019 23:00 16,6 C 79 % 1001,5 hPa 0,0 mm 0,0 km/h (0 Bft) S-SW 198 0 min 12,9 C 16,6 C 0,0 km/h (0 Bft)
19.05.2019 22:45 16,9 C 77 % 1001,4 hPa 0,0 mm 0,0 km/h (0 Bft) S-SW 198 0 min 12,8 C 16,9 C 0,0 km/h (0 Bft)
19.05.2019 22:30 17,2 C 75 % 1001,4 hPa 0,0 mm 0,0 km/h (0 Bft) S-SW 198 0 min 12,7 C 17,2 C 0,0 km/h (0 Bft)
19.05.2019 22:15 18,0 C 71 % 1001,3 hPa 0,0 mm 0,0 km/h (0 Bft) S-SW 198 0 min 12,7 C 18,0 C 0,0 km/h (0 Bft)
19.05.2019 22:00 18,4 C 67 % 1001,2 hPa 0,0 mm 0,0 km/h (0 Bft) S-SW 199 0 min 12,2 C 18,4 C 0,0 km/h (0 Bft)
19.05.2019 21:45 18,8 C 64 % 1001,2 hPa 0,0 mm 0,0 km/h (0 Bft) S-SW 196 0 min 11,8 C 18,8 C 0,0 km/h (0 Bft)
19.05.2019 21:30 19,2 C 64 % 1000,9 hPa 0,0 mm 0,0 km/h (0 Bft) S-SW 192 0 min 12,2 C 19,2 C 0,0 km/h (0 Bft)
19.05.2019 21:15 19,8 C 62 % 1000,8 hPa 0,0 mm 0,0 km/h (0 Bft) S-SW 193 0 min 12,3 C 19,8 C 0,0 km/h (0 Bft)
19.05.2019 21:00 20,6 C 61 % 1000,8 hPa 0,0 mm 0,0 km/h (0 Bft) S-SW 193 0 min 12,8 C 20,6 C 0,0 km/h (0 Bft)
19.05.2019 20:45 20,9 C 60 % 1000,8 hPa 0,0 mm 0,0 km/h (0 Bft) S-SW 193 0 min 12,8 C 20,9 C 0,0 km/h (0 Bft)
19.05.2019 20:30 21,2 C 58 % 1000,8 hPa 0,0 mm 0,0 km/h (0 Bft) S-SW 194 0 min 12,6 C 21,2 C 0,0 km/h (0 Bft)
19.05.2019 20:15 21,3 C 57 % 1000,8 hPa 0,0 mm 0,0 km/h (0 Bft) S-SW 194 0 min 12,4 C 21,3 C 0,0 km/h (0 Bft)
19.05.2019 20:00 21,5 C 56 % 1000,7 hPa 0,0 mm 0,0 km/h (0 Bft) S-SW 193 0 min 12,3 C 21,5 C 0,0 km/h (0 Bft)
19.05.2019 19:45 21,7 C 55 % 1000,6 hPa 0,0 mm 0,0 km/h (0 Bft) S-SW 193 0 min 12,3 C 21,7 C 0,0 km/h (0 Bft)
19.05.2019 19:30 21,7 C 56 % 1000,5 hPa 0,0 mm 0,0 km/h (0 Bft) S-SW 193 0 min 12,5 C 21,7 C 0,0 km/h (0 Bft)
19.05.2019 19:15 21,7 C 55 % 1000,4 hPa 0,0 mm 0,0 km/h (0 Bft) S-SW 192 15 min 12,3 C 21,7 C 0,0 km/h (0 Bft)
19.05.2019 19:00 21,9 C 52 % 1000,4 hPa 0,0 mm 0,8 km/h (0 Bft) S-SO 151 0 min 11,6 C 21,9 C 8,0 km/h (2 Bft)
19.05.2019 18:45 22,0 C 52 % 1000,5 hPa 0,0 mm 1,8 km/h (1 Bft) S 175 0 min 11,7 C 22,0 C 12,9 km/h (3 Bft)
19.05.2019 18:30 21,8 C 51 % 1000,5 hPa 0,0 mm 6,2 km/h (2 Bft) SO 137 0 min 11,2 C 21,8 C 16,1 km/h (3 Bft)
19.05.2019 18:15 21,9 C 50 % 1000,6 hPa 0,0 mm 8,3 km/h (2 Bft) O-SO 119 0 min 11,0 C 21,9 C 17,7 km/h (3 Bft)
19.05.2019 18:00 22,1 C 50 % 1000,7 hPa 0,0 mm 5,0 km/h (1 Bft) SO 128 0 min 11,2 C 22,1 C 14,5 km/h (3 Bft)
19.05.2019 17:45 22,2 C 47 % 1000,7 hPa 0,0 mm 6,8 km/h (2 Bft) O-SO 109 0 min 10,3 C 22,2 C 17,7 km/h (3 Bft)
19.05.2019 17:30 22,3 C 46 % 1000,8 hPa 0,0 mm 9,4 km/h (2 Bft) SO 126 0 min 10,1 C 22,3 C 20,9 km/h (4 Bft)
19.05.2019 17:15 22,6 C 45 % 1000,7 hPa 0,0 mm 8,4 km/h (2 Bft) O-SO 116 0 min 10,1 C 22,6 C 19,3 km/h (3 Bft)
19.05.2019 17:00 23,1 C 44 % 1000,8 hPa 0,0 mm 2,0 km/h (1 Bft) S-SO 155 0 min 10,2 C 23,1 C 11,3 km/h (2 Bft)
19.05.2019 16:45 23,0 C 42 % 1000,9 hPa 0,0 mm 2,3 km/h (1 Bft) SO 142 15 min 9,4 C 23,0 C 14,5 km/h (3 Bft)
19.05.2019 16:30 22,7 C 42 % 1000,9 hPa 0,0 mm 3,0 km/h (1 Bft) NO 53 0 min 9,1 C 22,7 C 16,1 km/h (3 Bft)
19.05.2019 16:15 22,7 C 43 % 1000,8 hPa 0,0 mm 4,2 km/h (1 Bft) O-NO 74 0 min 9,5 C 22,7 C 14,5 km/h (3 Bft)
19.05.2019 16:00 22,9 C 42 % 1000,9 hPa 0,0 mm 4,5 km/h (1 Bft) O 95 0 min 9,3 C 22,9 C 17,7 km/h (3 Bft)
19.05.2019 15:45 23,3 C 43 % 1000,7 hPa 0,0 mm 0,6 km/h (0 Bft) O-NO 73 0 min 10,0 C 23,3 C 9,7 km/h (2 Bft)
19.05.2019 15:30 22,9 C 44 % 1000,8 hPa 0,0 mm 1,5 km/h (1 Bft) O 80 0 min 10,0 C 22,9 C 11,3 km/h (2 Bft)
19.05.2019 15:15 22,9 C 44 % 1000,8 hPa 0,0 mm 0,7 km/h (0 Bft) N 11 0 min 10,0 C 22,9 C 6,4 km/h (2 Bft)
19.05.2019 15:00 22,7 C 43 % 1000,9 hPa 0,0 mm 0,8 km/h (0 Bft) O-NO 78 0 min 9,5 C 22,7 C 8,0 km/h (2 Bft)
19.05.2019 14:45 22,6 C 43 % 1001,0 hPa 0,0 mm 1,4 km/h (1 Bft) O-SO 115 0 min 9,4 C 22,6 C 9,7 km/h (2 Bft)
19.05.2019 14:30 22,6 C 46 % 1001,0 hPa 0,0 mm 4,0 km/h (1 Bft) NW 312 0 min 10,4 C 22,6 C 11,3 km/h (2 Bft)
19.05.2019 14:15 22,5 C 45 % 1001,2 hPa 0,0 mm 0,4 km/h (0 Bft) S-SW 197 0 min 10,0 C 22,5 C 6,4 km/h (2 Bft)
19.05.2019 14:00 22,0 C 47 % 1001,3 hPa 0,0 mm 2,9 km/h (1 Bft) O-NO 78 0 min 10,2 C 22,0 C 12,9 km/h (3 Bft)
19.05.2019 13:45 22,1 C 48 % 1001,2 hPa 0,0 mm 5,1 km/h (1 Bft) NO 51 0 min 10,6 C 22,1 C 12,9 km/h (3 Bft)
19.05.2019 13:30 22,4 C 48 % 1001,3 hPa 0,0 mm 5,8 km/h (2 Bft) NO 41 0 min 10,8 C 22,4 C 12,9 km/h (3 Bft)
19.05.2019 13:15 22,6 C 45 % 1001,4 hPa 0,0 mm 3,7 km/h (1 Bft) NO 46 0 min 10,1 C 22,6 C 12,9 km/h (3 Bft)
19.05.2019 13:00 22,8 C 45 % 1001,4 hPa 0,0 mm 1,1 km/h (1 Bft) NO 40 0 min 10,2 C 22,8 C 6,4 km/h (2 Bft)
19.05.2019 12:45 22,2 C 46 % 1001,6 hPa 0,0 mm 0,9 km/h (0 Bft) N-NO 26 0 min 10,0 C 22,2 C 8,0 km/h (2 Bft)
19.05.2019 12:30 22,3 C 46 % 1001,6 hPa 0,0 mm 1,0 km/h (0 Bft) O 93 0 min 10,1 C 22,3 C 6,4 km/h (2 Bft)
19.05.2019 12:15 22,7 C 45 % 1001,7 hPa 0,0 mm 2,8 km/h (1 Bft) NO 37 15 min 10,1 C 22,7 C 14,5 km/h (3 Bft)
19.05.2019 12:00 22,8 C 46 % 1001,8 hPa 0,0 mm 2,6 km/h (1 Bft) O-NO 78 15 min 10,6 C 22,8 C 16,1 km/h (3 Bft)
_ Min-Zeit 05:45 16:00 19:00 - 19:15 - - - 16:30 05:45 19:15
Minimum _ 11,6 C 42 % 1000,4 hPa - 0,0 km/h (0 Bft) - - - 9,1 C 11,6 C 0,0 km/h (0 Bft)
_ Max-Zeit 15:45 04:45 12:00 12:00 11:15 - - 12:00 11:15 15:45 11:15
Maximum _ 23,3 C 91 % 1001,8 hPa 0,0 mm 17,8 km/h
N-NW (3 Bft)
- - 15 min 14,5 C 23,3 C 30,6 km/h
NW (5 Bft)
Durchschnitt _ 18,0 C 68 % 1001,2 hPa #0,0 mm 2,0 km/h (1 Bft) NO - #3:15 h 11,3 C 18,0 C 7,3 km/h (2 Bft)